createdAt,value
2023-05-15T00:00:33.534Z,99935.00
2023-05-15T00:03:28.421Z,99933.00
2023-05-15T00:06:02.724Z,99931.00
2023-05-15T00:08:37.031Z,99926.00
2023-05-15T00:11:11.395Z,99917.60
2023-05-15T00:13:45.751Z,99909.60
2023-05-15T00:16:20.116Z,99902.00
2023-05-15T00:18:54.490Z,99895.60
2023-05-15T00:21:28.790Z,99895.60
2023-05-15T00:24:02.996Z,99890.60
2023-05-15T00:26:37.135Z,99886.60
2023-05-15T00:29:12.021Z,99882.80
2023-05-15T00:31:46.458Z,99884.80
2023-05-15T00:34:21.148Z,99879.60
2023-05-15T00:36:55.483Z,99877.20
2023-05-15T00:39:29.673Z,99861.40
2023-05-15T00:42:06.274Z,99849.60
2023-05-15T00:44:41.772Z,99852.40
2023-05-15T00:47:17.335Z,99840.20
2023-05-15T00:49:53.340Z,99844.00
2023-05-15T00:52:28.345Z,99835.00
2023-05-15T00:55:02.794Z,99827.80
2023-05-15T00:57:38.836Z,99821.20
2023-05-15T01:00:18.509Z,99813.20
2023-05-15T01:02:52.859Z,99806.00
2023-05-15T01:05:27.519Z,99803.60
2023-05-15T01:08:40.204Z,99802.80
2023-05-15T01:11:18.401Z,99797.00
2023-05-15T01:13:53.211Z,99804.80
2023-05-15T01:16:27.401Z,99798.80
2023-05-15T01:19:02.536Z,99789.20
2023-05-15T01:22:35.174Z,99786.60
2023-05-15T01:26:17.345Z,99784.80
2023-05-15T01:29:01.070Z,99779.40
2023-05-15T01:31:39.503Z,99785.00
2023-05-15T01:34:18.939Z,99782.60
2023-05-15T01:37:01.238Z,99778.60
2023-05-15T01:39:40.591Z,99772.60
2023-05-15T01:42:20.746Z,99769.60
2023-05-15T01:44:58.968Z,99771.60
2023-05-15T01:47:42.084Z,99770.60
2023-05-15T01:50:21.048Z,99764.00
2023-05-15T01:53:00.204Z,99756.80
2023-05-15T01:55:36.156Z,99757.80
2023-05-15T01:58:10.567Z,99752.60
2023-05-15T02:00:48.203Z,99751.00
2023-05-15T02:03:23.468Z,99749.00
2023-05-15T02:05:58.486Z,99744.00
2023-05-15T02:08:33.994Z,99739.60
2023-05-15T02:11:09.443Z,99732.00
2023-05-15T02:13:46.298Z,99725.20
2023-05-15T02:16:20.570Z,99723.80
2023-05-15T02:18:55.180Z,99719.20
2023-05-15T02:21:30.948Z,99716.80
2023-05-15T02:24:05.568Z,99721.40
2023-05-15T02:26:50.852Z,99712.80
2023-05-15T02:29:33.065Z,99710.40
2023-05-15T02:32:16.177Z,99703.40
2023-05-15T02:35:04.821Z,99699.60
2023-05-15T02:37:43.122Z,99693.00
2023-05-15T02:40:20.774Z,99693.00
2023-05-15T02:42:56.347Z,99686.40
2023-05-15T02:45:32.267Z,99687.60
2023-05-15T02:48:09.198Z,99681.40
2023-05-15T02:50:43.663Z,99675.40
2023-05-15T02:53:17.778Z,99668.80
2023-05-15T02:55:52.047Z,99668.20
2023-05-15T02:58:26.245Z,99658.20
2023-05-15T03:01:00.866Z,99647.20
2023-05-15T03:03:35.273Z,99644.60
2023-05-15T03:06:09.913Z,99640.00
2023-05-15T03:08:44.145Z,99629.80
2023-05-15T03:11:19.404Z,99626.40
2023-05-15T03:13:53.650Z,99613.40
2023-05-15T03:16:27.782Z,99607.40
2023-05-15T03:19:02.113Z,99612.20
2023-05-15T03:21:36.364Z,99612.60
2023-05-15T03:24:11.868Z,99613.00
2023-05-15T03:26:46.030Z,99604.00
2023-05-15T03:29:20.211Z,99596.80
2023-05-15T03:31:54.355Z,99587.40
2023-05-15T03:34:28.485Z,99590.40
2023-05-15T03:37:02.645Z,99592.00
2023-05-15T03:39:36.769Z,99585.20
2023-05-15T03:42:12.404Z,99584.40
2023-05-15T03:44:48.144Z,99576.80
2023-05-15T03:47:22.444Z,99577.40
2023-05-15T03:49:58.738Z,99575.00
2023-05-15T03:52:32.972Z,99566.80
2023-05-15T03:55:09.557Z,99567.80
2023-05-15T03:57:43.681Z,99558.60
2023-05-15T04:00:19.545Z,99564.60
2023-05-15T04:02:55.907Z,99557.20
2023-05-15T04:05:30.543Z,99562.80
2023-05-15T04:08:04.676Z,99553.60
2023-05-15T04:10:38.999Z,99551.80
2023-05-15T04:13:13.220Z,99557.80
2023-05-15T04:15:48.897Z,99552.20
2023-05-15T04:18:23.105Z,99554.00
2023-05-15T04:20:57.861Z,99547.60
2023-05-15T04:23:32.110Z,99549.00
2023-05-15T04:26:06.427Z,99547.40
2023-05-15T04:28:49.392Z,99542.00
2023-05-15T04:31:33.427Z,99548.40
2023-05-15T04:34:07.650Z,99545.60
2023-05-15T04:36:42.969Z,99537.60
2023-05-15T04:39:17.364Z,99543.00
2023-05-15T04:41:51.682Z,99546.00
2023-05-15T04:44:26.008Z,99537.40
2023-05-15T04:47:00.258Z,99536.00
2023-05-15T04:49:34.922Z,99533.60
2023-05-15T04:52:09.494Z,99525.60
2023-05-15T04:54:43.618Z,99521.40
2023-05-15T04:57:17.995Z,99528.60
2023-05-15T04:59:52.547Z,99528.20
2023-05-15T05:02:27.521Z,99523.20
2023-05-15T05:05:02.077Z,99519.20
2023-05-15T05:07:36.472Z,99514.40
2023-05-15T05:10:13.374Z,99510.20
2023-05-15T05:12:47.984Z,99507.80
2023-05-15T05:15:22.694Z,99508.80
2023-05-15T05:17:57.725Z,99504.80
2023-05-15T05:20:32.358Z,99495.20
2023-05-15T05:23:06.866Z,99494.00
2023-05-15T05:25:41.151Z,99491.20
2023-05-15T05:28:15.356Z,99485.80
2023-05-15T05:30:51.060Z,99487.60
2023-05-15T05:33:25.718Z,99483.00
2023-05-15T05:36:00.362Z,99478.80
2023-05-15T05:38:34.821Z,99474.60
2023-05-15T05:41:12.399Z,99467.40
2023-05-15T05:43:46.642Z,99471.00
2023-05-15T05:46:21.173Z,99473.40
2023-05-15T05:48:55.506Z,99471.40
2023-05-15T05:51:29.823Z,99462.40
2023-05-15T05:54:04.351Z,99458.40
2023-05-15T05:56:38.811Z,99456.20
2023-05-15T05:59:13.835Z,99454.20
2023-05-15T06:01:49.357Z,99446.00
2023-05-15T06:04:23.797Z,99446.20
2023-05-15T06:06:57.876Z,99437.20
2023-05-15T06:09:31.985Z,99433.20
2023-05-15T06:12:08.889Z,99431.00
2023-05-15T06:14:43.073Z,99422.40
2023-05-15T06:17:17.530Z,99422.60
2023-05-15T06:19:51.824Z,99422.60
2023-05-15T06:22:26.237Z,99422.40
2023-05-15T06:25:00.580Z,99414.40
2023-05-15T06:27:35.463Z,99418.80
2023-05-15T06:30:13.204Z,99410.00
2023-05-15T06:32:49.253Z,99413.80
2023-05-15T06:35:24.528Z,99406.20
2023-05-15T06:37:59.162Z,99406.00
2023-05-15T06:40:33.855Z,99407.60
2023-05-15T06:43:08.260Z,99409.80
2023-05-15T06:45:45.674Z,99408.20
2023-05-15T06:48:20.121Z,99404.40
2023-05-15T06:50:54.483Z,99402.80
2023-05-15T06:53:28.745Z,99402.40
2023-05-15T06:56:08.130Z,99393.20
2023-05-15T06:58:42.642Z,99393.00
2023-05-15T07:01:17.317Z,99393.60
2023-05-15T07:03:51.520Z,99396.60
2023-05-15T07:06:26.287Z,99390.20
2023-05-15T07:09:00.847Z,99385.60
2023-05-15T07:11:37.567Z,99384.40
2023-05-15T07:14:12.137Z,99385.20
2023-05-15T07:16:47.280Z,99380.40
2023-05-15T07:19:24.068Z,99381.20
2023-05-15T07:21:58.387Z,99378.00
2023-05-15T07:24:32.751Z,99380.20
2023-05-15T07:27:08.931Z,99375.40
2023-05-15T07:29:44.820Z,99369.40
2023-05-15T07:32:20.042Z,99370.80
2023-05-15T07:34:55.168Z,99369.20
2023-05-15T07:37:32.115Z,99366.20
2023-05-15T07:40:14.950Z,99369.40
2023-05-15T07:42:49.435Z,99373.80
2023-05-15T07:45:24.553Z,99367.80
2023-05-15T07:47:59.420Z,99372.60
2023-05-15T07:50:33.855Z,99366.80
2023-05-15T07:53:09.032Z,99362.60
2023-05-15T07:55:44.386Z,99361.20
2023-05-15T07:58:19.014Z,99362.80
2023-05-15T08:00:53.458Z,99358.80
2023-05-15T08:03:28.972Z,99368.60
2023-05-15T08:06:04.039Z,99364.20
2023-05-15T08:08:38.847Z,99362.00
2023-05-15T08:11:13.221Z,99364.00
2023-05-15T08:13:48.101Z,99354.20
2023-05-15T08:16:24.203Z,99344.60
2023-05-15T08:19:01.771Z,99347.40
2023-05-15T08:21:36.522Z,99341.00
2023-05-15T08:24:12.024Z,99345.00
2023-05-15T08:26:46.546Z,99343.40
2023-05-15T08:29:20.938Z,99341.80
2023-05-15T08:31:56.762Z,99338.80
2023-05-15T08:34:31.889Z,99343.60
2023-05-15T08:37:07.662Z,99337.40
2023-05-15T08:39:42.084Z,99334.20
2023-05-15T08:42:25.544Z,99334.60
2023-05-15T08:45:01.559Z,99331.40
2023-05-15T08:47:40.445Z,99331.00
2023-05-15T08:50:21.427Z,99330.60
2023-05-15T08:53:00.373Z,99337.80
2023-05-15T08:55:35.223Z,99337.20
2023-05-15T08:58:10.376Z,99338.80
2023-05-15T09:00:45.742Z,99340.80
2023-05-15T09:03:23.809Z,99337.40
2023-05-15T09:06:00.484Z,99335.20
2023-05-15T09:08:37.838Z,99331.00
2023-05-15T09:11:14.176Z,99338.00
2023-05-15T09:13:50.112Z,99337.40
2023-05-15T09:16:26.040Z,99340.40
2023-05-15T09:19:02.161Z,99334.60
2023-05-15T09:21:37.156Z,99332.80
2023-05-15T09:24:34.260Z,99332.60
2023-05-15T09:27:11.417Z,99332.00
2023-05-15T09:29:46.245Z,99327.80
2023-05-15T09:32:21.620Z,99335.80
2023-05-15T09:34:56.252Z,99338.20
2023-05-15T09:37:37.607Z,99340.80
2023-05-15T09:40:20.336Z,99337.60
2023-05-15T09:42:59.872Z,99342.20
2023-05-15T09:45:36.579Z,99342.20
2023-05-15T09:48:12.672Z,99345.20
2023-05-15T09:50:48.177Z,99346.80
2023-05-15T09:53:23.141Z,99343.40
2023-05-15T09:55:58.629Z,99342.00
2023-05-15T09:58:33.312Z,99343.20
2023-05-15T10:01:13.865Z,99341.20
2023-05-15T10:03:58.140Z,99338.00
2023-05-15T10:06:40.055Z,99345.00
2023-05-15T10:09:18.680Z,99346.00
2023-05-15T10:11:58.697Z,99340.80
2023-05-15T10:14:33.962Z,99336.80
2023-05-15T10:17:09.338Z,99324.20
2023-05-15T10:19:57.100Z,99317.60
2023-05-15T10:22:38.627Z,99318.80
2023-05-15T10:25:24.065Z,99316.00
2023-05-15T10:27:59.347Z,99318.80
2023-05-15T10:30:34.815Z,99317.00
2023-05-15T10:33:10.381Z,99318.40
2023-05-15T10:35:45.930Z,99321.20
2023-05-15T10:38:23.422Z,99324.40
2023-05-15T10:41:15.963Z,99328.00
2023-05-15T10:43:56.958Z,99330.00
2023-05-15T10:46:34.805Z,99330.80
2023-05-15T10:49:10.180Z,99325.80
2023-05-15T10:51:46.599Z,99333.00
2023-05-15T10:54:21.461Z,99330.40
2023-05-15T10:56:58.802Z,99333.60
2023-05-15T10:59:41.488Z,99347.20
2023-05-15T11:02:27.705Z,99342.20
2023-05-15T11:05:04.786Z,99343.40
2023-05-15T11:07:39.884Z,99337.80
2023-05-15T11:10:41.803Z,99325.00
2023-05-15T11:13:16.404Z,99324.40
2023-05-15T11:15:52.613Z,99321.00
2023-05-15T11:18:27.030Z,99313.00
2023-05-15T11:21:14.798Z,99299.80
2023-05-15T11:24:04.906Z,99292.60
2023-05-15T11:26:44.267Z,99288.80
2023-05-15T11:29:26.239Z,99282.00
2023-05-15T11:32:00.664Z,99272.80
2023-05-15T11:34:43.016Z,99273.00
2023-05-15T11:37:25.619Z,99270.00
2023-05-15T11:40:00.875Z,99268.20
2023-05-15T11:42:35.413Z,99266.60
2023-05-15T11:45:13.311Z,99259.80
2023-05-15T11:47:49.587Z,99252.00
2023-05-15T11:50:25.496Z,99254.40
2023-05-15T11:53:03.147Z,99257.40
2023-05-15T11:55:41.661Z,99256.00
2023-05-15T11:58:21.264Z,99255.80
2023-05-15T12:00:56.797Z,99259.60
2023-05-15T12:03:36.366Z,99251.40
2023-05-15T12:06:11.688Z,99261.60
2023-05-15T12:08:51.723Z,99262.00
2023-05-15T12:11:28.500Z,99256.80
2023-05-15T12:14:02.795Z,99256.00
2023-05-15T12:16:37.760Z,99253.40
2023-05-15T12:19:12.647Z,99260.20
2023-05-15T12:21:52.419Z,99262.80
2023-05-15T12:24:29.846Z,99265.60
2023-05-15T12:27:05.085Z,99263.60
2023-05-15T12:29:40.679Z,99257.40
2023-05-15T12:32:15.936Z,99247.80
2023-05-15T12:34:51.517Z,99243.80
2023-05-15T12:37:26.113Z,99246.00
2023-05-15T12:40:10.351Z,99241.20
2023-05-15T12:42:46.976Z,99244.00
2023-05-15T12:45:23.558Z,99243.40
2023-05-15T12:48:01.443Z,99248.00
2023-05-15T12:50:37.645Z,99244.60
2023-05-15T12:53:16.766Z,99243.40
2023-05-15T12:55:54.141Z,99246.40
2023-05-15T12:58:29.471Z,99246.40
2023-05-15T13:01:04.839Z,99250.40
2023-05-15T13:03:39.935Z,99240.40
2023-05-15T13:06:14.920Z,99244.60
2023-05-15T13:08:49.420Z,99247.00
2023-05-15T13:11:23.806Z,99237.80
2023-05-15T13:13:58.152Z,99238.00
2023-05-15T13:16:33.295Z,99236.40
2023-05-15T13:19:09.897Z,99240.80
2023-05-15T13:21:45.671Z,99247.20
2023-05-15T13:24:21.261Z,99247.40
2023-05-15T13:26:55.846Z,99255.20
2023-05-15T13:29:30.226Z,99247.40
2023-05-15T13:32:04.900Z,99254.20
2023-05-15T13:34:39.264Z,99260.60
2023-05-15T13:37:14.252Z,99259.40
2023-05-15T13:39:50.344Z,99260.00
2023-05-15T13:42:24.993Z,99257.00
2023-05-15T13:44:59.814Z,99265.40
2023-05-15T13:47:34.453Z,99269.40
2023-05-15T13:50:11.006Z,99274.00
2023-05-15T13:52:47.660Z,99277.00
2023-05-15T13:55:23.274Z,99279.80
2023-05-15T13:57:58.147Z,99285.00
2023-05-15T14:00:33.326Z,99290.20
2023-05-15T14:03:07.743Z,99291.60
2023-05-15T14:05:42.257Z,99298.00
2023-05-15T14:08:18.107Z,99302.40
2023-05-15T14:10:52.496Z,99306.60
2023-05-15T14:13:26.851Z,99311.40
2023-05-15T14:16:01.234Z,99312.40
2023-05-15T14:18:35.592Z,99312.20
2023-05-15T14:21:10.255Z,99313.60
2023-05-15T14:23:45.058Z,99314.60
2023-05-15T14:26:19.488Z,99313.20
2023-05-15T14:28:53.804Z,99311.80
2023-05-15T14:31:28.113Z,99309.60
2023-05-15T14:34:02.820Z,99312.80
2023-05-15T14:36:37.182Z,99308.80
2023-05-15T14:39:11.854Z,99317.60
2023-05-15T14:41:47.178Z,99308.80
2023-05-15T14:44:22.027Z,99313.80
2023-05-15T14:47:12.402Z,99315.20
2023-05-15T14:49:54.387Z,99322.80
2023-05-15T14:52:28.573Z,99330.00
2023-05-15T14:57:41.640Z,99331.20
2023-05-15T15:00:19.508Z,99333.80
2023-05-15T15:02:53.863Z,99334.60
2023-05-15T15:05:28.781Z,99334.80
2023-05-15T15:08:09.631Z,99334.40
2023-05-15T15:10:44.678Z,99343.40
2023-05-15T15:13:18.968Z,99342.20
2023-05-15T15:15:53.580Z,99344.60
2023-05-15T15:18:28.172Z,99342.80
2023-05-15T15:21:02.466Z,99340.80
2023-05-15T15:23:36.714Z,99339.00
2023-05-15T15:26:11.023Z,99343.80
2023-05-15T15:28:46.660Z,99344.00
2023-05-15T15:31:21.326Z,99345.20
2023-05-15T15:33:55.855Z,99352.00
2023-05-15T15:36:31.526Z,99353.00
2023-05-15T15:39:05.775Z,99353.60
2023-05-15T15:41:42.086Z,99351.60
2023-05-15T15:44:41.910Z,99354.00
2023-05-15T15:47:16.364Z,99353.00
2023-05-15T15:49:51.621Z,99353.20
2023-05-15T15:52:26.408Z,99346.40
2023-05-15T15:55:00.651Z,99352.60
2023-05-15T15:57:35.969Z,99350.20
2023-05-15T16:00:13.135Z,99352.40
2023-05-15T16:02:48.081Z,99354.80
2023-05-15T16:05:23.656Z,99352.00
2023-05-15T16:07:58.259Z,99358.80
2023-05-15T16:10:32.866Z,99357.00
2023-05-15T16:13:07.726Z,99351.40
2023-05-15T16:15:41.981Z,99354.80
2023-05-15T16:18:16.718Z,99355.80
2023-05-15T16:20:52.060Z,99356.60
2023-05-15T16:23:26.323Z,99354.80
2023-05-15T16:26:01.384Z,99346.60
2023-05-15T16:28:35.963Z,99353.60
2023-05-15T16:31:10.400Z,99340.80
2023-05-15T16:33:44.843Z,99340.80
2023-05-15T16:36:19.363Z,99343.00
2023-05-15T16:38:54.894Z,99341.80
2023-05-15T16:41:29.275Z,99341.40
2023-05-15T16:44:09.879Z,99334.40
2023-05-15T16:46:44.731Z,99331.40
2023-05-15T16:49:19.241Z,99332.80
2023-05-15T16:51:53.832Z,99337.60
2023-05-15T16:54:28.986Z,99342.60
2023-05-15T16:57:03.306Z,99346.40
2023-05-15T16:59:37.795Z,99357.00
2023-05-15T17:02:12.792Z,99360.60
2023-05-15T17:04:47.187Z,99359.60
2023-05-15T17:07:21.899Z,99370.40
2023-05-15T17:09:58.499Z,99371.20
2023-05-15T17:12:33.793Z,99386.00
2023-05-15T17:15:10.241Z,99380.40
2023-05-15T17:17:44.678Z,99389.60
2023-05-15T17:20:19.176Z,99386.80
2023-05-15T17:22:53.679Z,99379.80
2023-05-15T17:25:28.576Z,99390.60
2023-05-15T17:28:03.409Z,99385.40
2023-05-15T17:30:38.123Z,99392.60
2023-05-15T17:33:14.588Z,99393.20
2023-05-15T17:35:49.811Z,99396.80
2023-05-15T17:38:24.408Z,99403.80
2023-05-15T17:40:59.308Z,99408.00
2023-05-15T17:43:33.619Z,99400.80
2023-05-15T17:46:08.334Z,99404.80
2023-05-15T17:48:42.649Z,99405.40
2023-05-15T17:51:17.208Z,99407.20
2023-05-15T17:53:51.939Z,99403.40
2023-05-15T17:56:26.890Z,99404.00
2023-05-15T17:59:01.747Z,99409.00
2023-05-15T18:01:36.061Z,99414.80
2023-05-15T18:04:10.944Z,99419.00
2023-05-15T18:06:45.456Z,99425.40
2023-05-15T18:09:23.224Z,99425.80
2023-05-15T18:11:58.702Z,99431.80
2023-05-15T18:14:33.060Z,99439.60
2023-05-15T18:17:07.688Z,99441.20
2023-05-15T18:19:44.957Z,99450.80
2023-05-15T18:22:20.100Z,99447.40
2023-05-15T18:24:54.457Z,99452.00
2023-05-15T18:27:29.557Z,99460.00
2023-05-15T18:30:05.111Z,99461.60
2023-05-15T18:32:39.791Z,99459.20
2023-05-15T18:35:15.195Z,99463.40
2023-05-15T18:37:49.567Z,99468.60
2023-05-15T18:40:26.560Z,99471.00
2023-05-15T18:43:01.728Z,99475.40
2023-05-15T18:45:36.377Z,99483.60
2023-05-15T18:48:11.834Z,99485.00
2023-05-15T18:50:46.392Z,99492.00
2023-05-15T18:53:21.361Z,99491.00
2023-05-15T18:55:57.224Z,99493.60
2023-05-15T18:58:32.123Z,99498.80
2023-05-15T19:01:07.688Z,99505.20
2023-05-15T19:03:43.014Z,99505.60
2023-05-15T19:06:20.352Z,99514.80
2023-05-15T19:08:55.097Z,99514.00
2023-05-15T19:11:29.878Z,99520.80
2023-05-15T19:14:04.435Z,99524.80
2023-05-15T19:16:39.041Z,99527.80
2023-05-15T19:19:15.546Z,99522.20
2023-05-15T19:21:50.702Z,99534.20
2023-05-15T19:24:26.229Z,99531.20
2023-05-15T19:27:00.535Z,99533.40
2023-05-15T19:29:35.425Z,99538.20
2023-05-15T19:32:11.027Z,99537.60
2023-05-15T19:34:46.319Z,99537.00
2023-05-15T19:37:20.968Z,99545.40
2023-05-15T19:39:55.400Z,99547.40
2023-05-15T19:42:29.815Z,99552.80
2023-05-15T19:45:04.570Z,99550.40
2023-05-15T19:47:38.931Z,99552.00
2023-05-15T19:50:14.905Z,99546.00
2023-05-15T19:52:49.348Z,99553.00
2023-05-15T19:55:24.116Z,99554.40
2023-05-15T19:58:00.331Z,99554.40
2023-05-15T20:00:36.375Z,99554.80
2023-05-15T20:03:10.937Z,99552.40
2023-05-15T20:05:45.611Z,99554.00
2023-05-15T20:08:22.282Z,99551.60
2023-05-15T20:10:57.208Z,99553.20
2023-05-15T20:13:41.304Z,99554.40
2023-05-15T20:16:31.172Z,99560.80
2023-05-15T20:19:06.227Z,99557.60
2023-05-15T20:21:40.601Z,99556.20
2023-05-15T20:24:15.826Z,99562.20
2023-05-15T20:26:50.481Z,99566.60
2023-05-15T20:29:25.861Z,99562.40
2023-05-15T20:32:00.900Z,99565.40
2023-05-15T20:34:38.507Z,99566.20
2023-05-15T20:37:14.484Z,99571.80
2023-05-15T20:39:48.828Z,99572.40
2023-05-15T20:42:23.430Z,99575.00
2023-05-15T20:44:58.635Z,99579.00
2023-05-15T20:47:33.093Z,99580.00
2023-05-15T20:50:08.251Z,99577.80
2023-05-15T20:52:42.625Z,99575.20
2023-05-15T20:55:22.205Z,99579.60
2023-05-15T20:57:56.658Z,99579.00
2023-05-15T21:00:33.491Z,99577.40
2023-05-15T21:03:09.513Z,99584.60
2023-05-15T21:05:44.612Z,99585.60
2023-05-15T21:08:19.023Z,99583.20
2023-05-15T21:10:55.594Z,99582.20
2023-05-15T21:13:30.685Z,99586.20
2023-05-15T21:16:05.383Z,99585.20
2023-05-15T21:18:40.246Z,99584.40
2023-05-15T21:21:15.316Z,99588.60
2023-05-15T21:23:50.207Z,99585.40
2023-05-15T21:26:25.324Z,99588.60
2023-05-15T21:29:01.493Z,99583.80
2023-05-15T21:31:36.388Z,99584.60
2023-05-15T21:34:11.733Z,99578.00
2023-05-15T21:36:46.718Z,99581.80
2023-05-15T21:39:21.607Z,99588.20
2023-05-15T21:41:56.209Z,99589.80
2023-05-15T21:44:31.366Z,99589.60
2023-05-15T21:47:09.269Z,99595.40
2023-05-15T21:49:44.013Z,99601.20
2023-05-15T21:52:18.485Z,99604.20
2023-05-15T21:54:52.889Z,99600.80
2023-05-15T21:57:27.163Z,99605.40
2023-05-15T22:00:01.835Z,99607.20
2023-05-15T22:03:11.857Z,99613.20
2023-05-15T22:05:46.809Z,99613.00
2023-05-15T22:08:21.789Z,99614.00
2023-05-15T22:10:58.403Z,99615.80
2023-05-15T22:13:33.148Z,99623.20
2023-05-15T22:16:09.710Z,99626.80
2023-05-15T22:18:46.023Z,99629.20
2023-05-15T22:21:20.381Z,99632.40
2023-05-15T22:23:54.732Z,99634.80
2023-05-15T22:26:29.544Z,99635.00
2023-05-15T22:29:03.995Z,99641.60
2023-05-15T22:31:38.515Z,99636.00
2023-05-15T22:34:12.705Z,99639.80
2023-05-15T22:36:47.996Z,99639.00
2023-05-15T22:39:22.695Z,99642.00
2023-05-15T22:41:56.969Z,99643.60
2023-05-15T22:44:31.836Z,99636.00
2023-05-15T22:47:07.812Z,99636.20
2023-05-15T22:49:42.094Z,99641.00
2023-05-15T22:52:16.847Z,99642.40
2023-05-15T22:54:51.067Z,99647.60
2023-05-15T22:57:26.986Z,99648.60
2023-05-15T23:00:01.663Z,99654.80
2023-05-15T23:02:38.507Z,99654.80
2023-05-15T23:05:13.899Z,99654.40
2023-05-15T23:07:48.267Z,99653.00
2023-05-15T23:10:23.028Z,99652.40
2023-05-15T23:12:57.322Z,99655.80
2023-05-15T23:15:31.540Z,99660.20
2023-05-15T23:18:07.288Z,99666.60
2023-05-15T23:20:41.593Z,99666.60
2023-05-15T23:23:16.323Z,99663.80
2023-05-15T23:25:50.869Z,99667.20
2023-05-15T23:28:25.393Z,99662.20
2023-05-15T23:31:01.098Z,99664.40
2023-05-15T23:33:35.834Z,99663.00
2023-05-15T23:36:11.233Z,99666.00
2023-05-15T23:38:47.593Z,99671.00
2023-05-15T23:41:22.860Z,99672.40
2023-05-15T23:43:57.145Z,99674.80
2023-05-15T23:46:31.864Z,99679.40
2023-05-15T23:49:06.143Z,99679.40
2023-05-15T23:51:40.613Z,99680.80
2023-05-15T23:54:14.864Z,99682.40
2023-05-15T23:56:49.139Z,99683.80
2023-05-15T23:59:23.675Z,99680.20
